Wrigley, Kentucky
Current Conditions -  °F | °C
As of 4:30 PM on Thursday 18 Dec 2014 (Local Time) from KSYM Reporting Station
Overcast Overcast  
Wind Chill: 32°   Ceiling: 9000
Heat Index: 32°   Visibility: 10mi
Dew Point: 23°   Wind: 0mph
Humidity: 69%   Direction: NA
Pressure: 30.21"   Gusts: NA
Location:  38.02°N, 83.27°W
Report Text: KSYM 182130Z AUTO 00000KT 10SM SCT019 OVC090 M00/M05 A3021 RMK AO2
Loading
Personal Weather Stations






























Interactive Weather Map New forecast layout! Learn more

10-Day Weather Forecast

Advertisements
Track Severe Weather on mobile